메인 페이지
METAR-TAF:

METAR-TAF

공항 :

프라하 바츨라프 하벨 국제공항

프라하, 체코

위도: 50-06N, 경도: 014-15E, 고도: 365m

현재 날씨관측

예보는 12분 전, 18:30시(UTC)에 발표되었습니다.
남서7kt
온도 6°C
습도 65%
기압 1024 hPa
시정 10km 이상
1500m 미만 상공 구름 및 적란운 없음

METAR: LKPR 201830Z 23007KT CAVOK 06/00 Q1024 NOSIG

시각: 19:42 (18:42 UTC)

예보

예보는 1 시간 42분 전, 17:00시(UTC)에 발표되었습니다.
예보 대상 시간: 20일 18시부터 22일 00시까지 (UTC)
서남서8kt
시정 10km 이상
1500m 미만 상공 구름 및 적란운 없음
전환 중
21일 12시부터 21일 14시까지 (UTC)
12kt
시정 10km 이상
고도 3000ft 상공 구름 많음
일시적
21일 15시부터 22일 00시까지 (UTC)
시정: 6000m
고도 1700ft 상공 구름 많음
약한비

TAF: LKPR 201700Z 2018/2200 25008KT CAVOK BECMG 2112/2114 27012KT 9999 BKN030 TEMPO 2115/2200 6000 -RA BKN017

4,000개 이상의 공항 관측 자료 및 예보 (METAR 및 TAF 보고).

지도상에서 검색 가능한 기상관측소가 노란 점과 빨간 점으로 표시되어 있습니다.

기상관측소 명을 보려면 표시 위로 마우스를 이동하세요.

날씨 관측과 예보를 보려면 클릭하세요.

지도 변경 : 확대하려면 엑스 표시가 있는 녹색 버튼, 축소하려면 빼기 표시가 있는 녹색 버튼, 다음 페이지의 지도를 보려면 녹색 화살표를 클릭하세요.


METAR-TAF: